Time;durP1;ratioP1;P1;durP2;ratioP2;P2;SDS_P1;SDS_P2;PMS_P1;PMS_P2;Temp;Humidity;BMP_temperature;BMP_pressure;BME280_temperature;BME280_humidity;BME280_pressure;Samples;Min_cycle;Max_cycle;Signal;HPM_P1;HPM_P2
2023/08/24 00:01:46;;;;;;;3.75;2.05;;;;;;;21.74;49.75;100497.25;5035151;28;20621;-68
2023/08/24 00:04:14;;;;;;;4.75;2.42;;;;;;;21.71;49.42;100496.47;5035429;28;20568;-69
2023/08/24 00:06:42;;;;;;;6.43;2.47;;;;;;;21.67;49.41;100500.16;5034674;28;20199;-67
2023/08/24 00:09:10;;;;;;;3.20;2.33;;;;;;;21.64;49.56;100495.06;5027636;28;20662;-68
2023/08/24 00:11:38;;;;;;;4.05;2.30;;;;;;;21.61;49.86;100502.25;5028698;28;20276;-68
2023/08/24 00:14:08;;;;;;;2.75;2.15;;;;;;;21.56;49.93;100501.63;5021357;28;20708;-68
2023/08/24 00:16:35;;;;;;;3.35;2.25;;;;;;;21.58;49.82;100505.88;5034551;28;20218;-68
2023/08/24 00:19:03;;;;;;;3.58;2.25;;;;;;;21.56;50.03;100510.34;5034474;28;20571;-67
2023/08/24 00:21:31;;;;;;;4.63;2.50;;;;;;;21.53;50.14;100505.25;5034757;28;20522;-68
2023/08/24 00:24:00;;;;;;;3.38;2.38;;;;;;;21.50;50.03;100510.63;5034491;28;20206;-69
2023/08/24 00:26:28;;;;;;;5.82;2.20;;;;;;;21.45;49.87;100502.16;5030633;28;20210;-68
2023/08/24 00:28:56;;;;;;;4.28;1.98;;;;;;;21.43;49.99;100496.16;5034641;28;20209;-68
2023/08/24 00:31:25;;;;;;;3.30;2.20;;;;;;;21.39;49.92;100500.72;5020189;28;20218;-65
2023/08/24 00:33:54;;;;;;;3.70;2.00;;;;;;;21.36;50.03;100494.75;5034201;28;20238;-67
2023/08/24 00:36:23;;;;;;;2.83;1.75;;;;;;;21.34;50.14;100500.06;5034062;28;20202;-67
2023/08/24 00:38:53;;;;;;;3.03;2.00;;;;;;;21.34;50.19;100496.59;5034164;28;20210;-67
2023/08/24 00:41:21;;;;;;;5.70;2.10;;;;;;;21.34;50.18;100497.44;5034594;28;20198;-68
2023/08/24 00:43:50;;;;;;;3.65;2.28;;;;;;;21.30;50.16;100493.25;5025498;28;20277;-67
2023/08/24 00:46:19;;;;;;;5.35;2.10;;;;;;;21.29;50.07;100493.34;5029241;28;20198;-67
2023/08/24 00:48:48;;;;;;;2.83;2.10;;;;;;;21.22;50.15;100488.38;5034049;28;20202;-68
2023/08/24 00:51:16;;;;;;;2.55;2.20;;;;;;;21.19;49.99;100488.53;5033555;28;20234;-67
2023/08/24 00:53:44;;;;;;;3.88;2.33;;;;;;;21.15;50.40;100494.84;5034018;28;20241;-67
2023/08/24 00:56:12;;;;;;;2.63;2.25;;;;;;;21.12;50.23;100492.34;5034115;28;20647;-67
2023/08/24 00:58:41;;;;;;;3.75;2.05;;;;;;;21.09;50.30;100495.13;5033669;28;20300;-66
2023/08/24 01:01:09;;;;;;;2.70;1.90;;;;;;;21.05;50.20;100487.50;5034045;28;20206;-68
2023/08/24 01:03:37;;;;;;;2.75;1.92;;;;;;;21.08;50.35;100496.06;5033681;28;20209;-67
2023/08/24 01:06:07;;;;;;;3.35;1.88;;;;;;;21.05;50.51;100496.19;5033963;28;20233;-67
2023/08/24 01:08:35;;;;;;;3.92;2.17;;;;;;;21.01;50.50;100499.03;5033410;28;20554;-67
2023/08/24 01:11:12;;;;;;;3.20;2.08;;;;;;;20.95;50.66;100495.81;5032584;28;20293;-66
2023/08/24 01:13:49;;;;;;;3.15;2.05;;;;;;;20.93;50.56;100492.38;5033713;28;20205;-66
2023/08/24 01:16:20;;;;;;;3.72;1.98;;;;;;;20.90;51.04;100494.31;5033533;28;20203;-67
2023/08/24 01:18:49;;;;;;;2.65;2.00;;;;;;;20.88;50.87;100498.78;5033283;28;20203;-67
2023/08/24 01:21:18;;;;;;;5.93;2.30;;;;;;;20.89;50.67;100492.63;5033681;28;20682;-67
2023/08/24 01:24:06;;;;;;;2.88;1.95;;;;;;;20.88;50.96;100485.69;5033448;28;20207;-68
2023/08/24 01:26:36;;;;;;;2.22;2.03;;;;;;;20.88;50.76;100485.69;5029241;28;20666;-67
2023/08/24 01:29:05;;;;;;;5.70;2.40;;;;;;;20.90;50.72;100491.69;5033210;28;20202;-68
2023/08/24 01:31:33;;;;;;;4.35;2.20;;;;;;;20.88;50.50;100486.53;5032901;28;20222;-67
2023/08/24 01:34:01;;;;;;;3.67;1.98;;;;;;;20.87;50.63;100486.59;5033114;28;20266;-67
2023/08/24 01:36:30;;;;;;;2.90;2.03;;;;;;;20.87;50.78;100489.22;5019621;28;20775;-69
2023/08/24 01:39:06;;;;;;;4.20;2.22;;;;;;;20.84;50.80;100481.50;5022408;28;20290;-68
2023/08/24 01:41:38;;;;;;;3.85;2.08;;;;;;;20.83;50.78;100479.78;5031258;28;20252;-66
2023/08/24 01:44:09;;;;;;;3.92;2.20;;;;;;;20.80;51.13;100483.41;5033030;28;20207;-67
2023/08/24 01:46:38;;;;;;;5.10;2.30;;;;;;;20.77;51.13;100485.31;5018877;28;20211;-67
2023/08/24 01:49:08;;;;;;;3.85;2.35;;;;;;;20.78;51.19;100481.78;5032800;28;20206;-68
2023/08/24 01:51:36;;;;;;;4.82;2.60;;;;;;;20.80;51.13;100482.56;5032976;28;20760;-67
2023/08/24 01:54:04;;;;;;;3.00;2.50;;;;;;;20.80;51.10;100472.09;5033723;28;20679;-67
2023/08/24 01:56:32;;;;;;;2.65;1.92;;;;;;;20.83;51.20;100479.78;5032782;28;20246;-67
2023/08/24 01:59:02;;;;;;;2.10;1.90;;;;;;;20.86;51.34;100474.41;5032838;28;20202;-67
2023/08/24 02:01:30;;;;;;;2.17;1.98;;;;;;;20.87;51.06;100469.09;5032540;28;20238;-67
2023/08/24 02:03:59;;;;;;;3.88;2.28;;;;;;;20.89;50.94;100479.53;5032638;28;20199;-67
2023/08/24 02:06:27;;;;;;;2.67;2.25;;;;;;;20.89;51.03;100479.53;5032664;28;20520;-67
2023/08/24 02:08:55;;;;;;;2.67;2.47;;;;;;;20.89;50.58;100469.88;5027041;28;20207;-68
2023/08/24 02:11:23;;;;;;;3.03;1.88;;;;;;;20.92;50.78;100476.75;5024488;28;20698;-66
2023/08/24 02:13:51;;;;;;;1.70;1.60;;;;;;;20.89;50.91;100469.88;5032450;28;20226;-68
2023/08/24 02:16:20;;;;;;;3.28;2.13;;;;;;;20.89;51.00;100471.66;5022439;28;20207;-66
2023/08/24 02:18:48;;;;;;;2.38;2.13;;;;;;;20.89;50.96;100471.66;5028991;28;20214;-67
2023/08/24 02:21:16;;;;;;;4.18;2.03;;;;;;;20.89;50.94;100475.13;5032042;28;20716;-67
2023/08/24 02:23:44;;;;;;;3.25;2.45;;;;;;;20.86;50.82;100470.03;5032459;28;20623;-67
2023/08/24 02:26:12;;;;;;;2.90;2.05;;;;;;;20.83;50.94;100471.94;5031859;28;20202;-68
2023/08/24 02:28:40;;;;;;;3.53;2.20;;;;;;;20.79;51.01;100465.16;5032302;28;20576;-68
2023/08/24 02:31:08;;;;;;;2.60;2.22;;;;;;;20.75;51.37;100469.69;5032132;28;20261;-68
2023/08/24 02:33:37;;;;;;;4.80;2.30;;;;;;;20.73;51.34;100477.63;5031831;28;20325;-66
2023/08/24 02:36:05;;;;;;;4.75;2.28;;;;;;;20.70;51.31;100472.53;5031721;28;20207;-67
2023/08/24 02:38:33;;;;;;;2.92;2.40;;;;;;;20.67;51.39;100474.44;5031944;28;20261;-67
2023/08/24 02:41:03;;;;;;;4.18;2.10;;;;;;;20.61;51.93;100470.31;5032081;28;20660;-66
2023/08/24 02:43:31;;;;;;;4.88;2.25;;;;;;;20.54;51.72;100471.53;5025546;28;20227;-67
2023/08/24 02:46:04;;;;;;;3.38;2.38;;;;;;;20.49;52.48;100474.34;5024898;28;20779;-69
2023/08/24 02:48:33;;;;;;;4.88;2.60;;;;;;;20.44;52.37;100473.69;5031513;28;20232;-66
2023/08/24 02:51:03;;;;;;;3.00;2.17;;;;;;;20.41;52.48;100473.00;5031932;28;20628;-68
2023/08/24 02:53:31;;;;;;;3.78;1.98;;;;;;;20.41;52.58;100473.00;5031499;28;20309;-67
2023/08/24 02:56:00;;;;;;;3.85;1.92;;;;;;;20.43;52.40;100477.22;5031564;28;20229;-67
2023/08/24 02:58:28;;;;;;;4.53;2.35;;;;;;;20.44;52.58;100483.31;5031643;28;20650;-71
2023/08/24 03:00:56;;;;;;;3.67;2.58;;;;;;;20.43;52.62;100478.97;5032031;28;20215;-67
2023/08/24 03:03:25;;;;;;;5.90;2.55;;;;;;;20.43;52.82;100478.97;5031695;28;20658;-70
2023/08/24 03:05:57;;;;;;;2.75;2.13;;;;;;;20.40;52.89;100476.50;5031776;28;20268;-67
2023/08/24 03:08:26;;;;;;;2.85;2.22;;;;;;;20.40;52.69;100477.38;5031154;28;20233;-68
2023/08/24 03:10:54;;;;;;;4.35;2.33;;;;;;;20.39;52.51;100469.56;5031630;28;20671;-68
2023/08/24 03:13:22;;;;;;;4.88;2.60;;;;;;;20.36;52.54;100480.19;5031119;28;20226;-67
2023/08/24 03:15:50;;;;;;;3.78;2.60;;;;;;;20.31;52.93;100477.78;5031164;28;20260;-67
2023/08/24 03:18:18;;;;;;;4.13;2.40;;;;;;;20.28;52.56;100473.53;5031200;28;20210;-69
2023/08/24 03:20:47;;;;;;;2.95;1.92;;;;;;;20.30;53.00;100477.84;5031068;28;20206;-68
2023/08/24 03:23:16;;;;;;;2.92;2.40;;;;;;;20.29;52.89;100469.16;5031239;28;20285;-67
2023/08/24 03:25:45;;;;;;;2.90;2.40;;;;;;;20.35;52.62;100475.88;5031359;28;20653;-67
2023/08/24 03:28:13;;;;;;;7.57;2.70;;;;;;;20.38;52.79;100467.88;5018043;28;20653;-67
2023/08/24 03:30:47;;;;;;;4.03;2.30;;;;;;;20.38;52.58;100467.88;5019178;28;20214;-68
2023/08/24 03:33:15;;;;;;;4.35;2.45;;;;;;;20.37;52.45;100459.19;5029885;28;20296;-68
2023/08/24 03:35:43;;;;;;;4.03;2.28;;;;;;;20.38;52.53;100462.66;5019381;28;20210;-68
2023/08/24 03:38:11;;;;;;;4.13;2.38;;;;;;;20.41;52.51;100455.50;5029333;28;20202;-66
2023/08/24 03:40:39;;;;;;;4.55;2.20;;;;;;;20.43;52.29;100455.44;5021050;28;20215;-68
2023/08/24 03:43:08;;;;;;;3.10;2.17;;;;;;;20.44;52.17;100462.38;5028170;28;20241;-69
2023/08/24 03:45:36;;;;;;;3.72;2.30;;;;;;;20.43;52.25;100456.28;5021460;28;20203;-69
2023/08/24 03:48:05;;;;;;;2.40;2.17;;;;;;;20.41;52.27;100460.75;5026882;28;20206;-68
2023/08/24 03:50:33;;;;;;;2.92;2.15;;;;;;;20.42;52.58;100465.06;5030723;28;20206;-68
2023/08/24 03:53:01;;;;;;;5.90;3.80;;;;;;;20.37;52.33;100450.50;5016939;28;20585;-68
2023/08/24 03:55:29;;;;;;;5.10;2.33;;;;;;;20.38;52.19;100457.41;5031022;28;20650;-67
2023/08/24 03:57:58;;;;;;;4.78;2.45;;;;;;;20.39;52.49;100461.72;5030932;28;20202;-67
2023/08/24 04:00:27;;;;;;;4.07;2.20;;;;;;;20.39;52.48;100465.19;5016922;28;20209;-68
2023/08/24 04:02:55;;;;;;;2.85;1.90;;;;;;;20.38;52.51;100460.88;5031048;28;20264;-68
2023/08/24 04:05:23;;;;;;;3.08;2.47;;;;;;;20.37;52.42;100466.19;5030430;28;20206;-73
2023/08/24 04:07:52;;;;;;;3.03;2.28;;;;;;;20.38;52.35;100466.13;5030681;28;20211;-68
2023/08/24 04:10:20;;;;;;;3.42;2.35;;;;;;;20.44;52.48;100467.63;5027517;28;20242;-67
2023/08/24 04:12:48;;;;;;;6.25;2.42;;;;;;;20.46;52.34;100473.63;5020487;28;20207;-67
2023/08/24 04:15:16;;;;;;;5.05;2.40;;;;;;;20.46;52.71;100471.84;5016691;28;20204;-68
2023/08/24 04:17:45;;;;;;;3.97;2.47;;;;;;;20.48;52.33;100475.25;5030786;28;20218;-68
2023/08/24 04:20:13;;;;;;;6.97;2.92;;;;;;;20.49;52.50;100481.34;5030113;28;20210;-67
2023/08/24 04:22:41;;;;;;;3.35;2.55;;;;;;;20.45;52.28;100479.78;5017910;28;20256;-67
2023/08/24 04:25:09;;;;;;;2.20;2.00;;;;;;;20.49;52.62;100482.22;5030892;28;20231;-67
2023/08/24 04:27:37;;;;;;;5.78;2.65;;;;;;;20.54;52.39;100482.00;5030556;28;20224;-67
2023/08/24 04:30:11;;;;;;;2.67;2.30;;;;;;;20.56;52.29;100482.78;5030720;28;20206;-69
2023/08/24 04:32:39;;;;;;;3.70;2.38;;;;;;;20.60;52.17;100480.88;5030230;28;20288;-69
2023/08/24 04:35:10;;;;;;;3.85;2.50;;;;;;;20.62;51.96;100477.28;5030201;28;20214;-69
2023/08/24 04:37:38;;;;;;;5.70;2.30;;;;;;;20.70;51.80;100471.69;5030398;28;20210;-69
2023/08/24 04:40:08;;;;;;;5.18;2.65;;;;;;;20.73;51.79;100467.16;5030288;28;20257;-68
2023/08/24 04:42:36;;;;;;;4.63;2.70;;;;;;;20.80;51.38;100469.47;5030467;28;20221;-69
2023/08/24 04:45:05;;;;;;;6.90;2.45;;;;;;;20.89;51.11;100474.28;5033197;28;20207;-67
2023/08/24 04:47:33;;;;;;;5.50;2.30;;;;;;;20.95;51.03;100468.72;5034331;28;20682;-69
2023/08/24 04:50:00;;;;;;;4.68;2.60;;;;;;;21.04;50.78;100476.16;5020294;28;20634;-68
2023/08/24 04:52:30;;;;;;;4.10;2.53;;;;;;;21.11;50.58;100471.47;5034106;28;20225;-67
2023/08/24 04:54:58;;;;;;;5.03;2.35;;;;;;;21.18;50.19;100471.09;5033737;28;20242;-68
2023/08/24 04:57:26;;;;;;;5.57;3.25;;;;;;;21.21;50.13;100470.97;5025083;28;20249;-69
2023/08/24 04:59:54;;;;;;;6.18;2.53;;;;;;;21.22;49.85;100475.28;5028962;28;20214;-69
2023/08/24 05:02:22;;;;;;;6.43;2.63;;;;;;;21.26;50.00;100478.59;5034102;28;20661;-67
2023/08/24 05:04:50;;;;;;;6.13;2.70;;;;;;;21.35;49.78;100472.06;5033939;28;20585;-67
2023/08/24 05:07:18;;;;;;;11.18;2.75;;;;;;;21.39;49.67;100479.72;5019802;28;20199;-68
2023/08/24 05:09:47;;;;;;;6.95;2.50;;;;;;;21.41;49.52;100467.38;5034055;28;20202;-68
2023/08/24 05:12:15;;;;;;;3.17;2.53;;;;;;;21.51;49.71;100475.66;5033378;28;20198;-68
2023/08/24 05:14:43;;;;;;;8.30;2.78;;;;;;;21.53;49.35;100478.19;5033580;28;20678;-67
2023/08/24 05:17:11;;;;;;;5.22;2.53;;;;;;;21.53;49.50;100486.88;5033329;28;20217;-69
2023/08/24 05:19:39;;;;;;;6.70;2.40;;;;;;;21.65;49.36;100488.91;5033469;28;20221;-68
2023/08/24 05:22:07;;;;;;;10.93;2.60;;;;;;;21.70;48.84;100484.28;5033404;28;20673;-67
2023/08/24 05:24:35;;;;;;;3.83;2.47;;;;;;;21.79;48.85;100480.31;5033473;28;20195;-68
2023/08/24 05:27:05;;;;;;;6.10;2.72;;;;;;;22.00;48.34;100483.63;5033456;28;20760;-70
2023/08/24 05:29:33;;;;;;;8.70;3.13;;;;;;;22.16;47.90;100475.81;5033356;28;20757;-68
2023/08/24 05:32:01;;;;;;;8.30;2.97;;;;;;;22.35;47.43;100484.44;5033033;28;20198;-69
2023/08/24 05:34:29;;;;;;;6.78;3.20;;;;;;;22.42;47.08;100484.94;5033212;28;20210;-70
2023/08/24 05:36:58;;;;;;;6.63;3.13;;;;;;;22.32;46.94;100483.75;5033002;28;20237;-69
2023/08/24 05:39:26;;;;;;;7.05;2.97;;;;;;;22.13;47.57;100483.84;5032925;28;20213;-67
2023/08/24 05:41:54;;;;;;;6.47;3.10;;;;;;;22.01;48.21;100493.19;5033105;28;20206;-68
2023/08/24 05:44:23;;;;;;;5.93;2.67;;;;;;;21.85;48.87;100490.50;5033145;28;20249;-68
2023/08/24 05:46:51;;;;;;;6.90;3.05;;;;;;;21.83;48.73;100488.88;5027219;28;20217;-68
2023/08/24 05:49:19;;;;;;;6.38;2.53;;;;;;;21.83;48.78;100488.88;5025021;28;20217;-69
2023/08/24 05:51:47;;;;;;;4.43;2.92;;;;;;;21.84;49.20;100491.44;5019049;28;20205;-69
2023/08/24 05:54:18;;;;;;;4.40;2.88;;;;;;;21.90;49.38;100501.63;5032846;28;20228;-68
2023/08/24 05:56:46;;;;;;;5.50;3.28;;;;;;;21.80;49.18;100494.28;5031914;28;20199;-68
2023/08/24 05:59:14;;;;;;;6.18;2.83;;;;;;;21.83;49.47;100496.75;5032612;28;20207;-69
2023/08/24 06:01:44;;;;;;;3.03;2.47;;;;;;;21.87;49.46;100495.66;5032609;28;20606;-68
2023/08/24 06:04:12;;;;;;;4.95;3.08;;;;;;;22.16;48.93;100502.91;5032518;28;20372;-69
2023/08/24 06:06:40;;;;;;;4.63;2.83;;;;;;;23.21;47.09;100497.28;5031621;28;20214;-68
2023/08/24 06:09:09;;;;;;;5.30;2.85;;;;;;;24.49;43.40;100488.81;5019859;28;20199;-69
2023/08/24 06:11:38;;;;;;;7.00;2.53;;;;;;;25.78;41.28;100486.56;5032681;28;20674;-68
2023/08/24 06:14:06;;;;;;;3.80;2.90;;;;;;;27.25;38.23;100476.19;5018685;28;20681;-69
2023/08/24 06:16:34;;;;;;;3.50;3.17;;;;;;;28.81;35.19;100476.50;5020175;28;20213;-70
2023/08/24 06:19:04;;;;;;;6.10;2.28;;;;;;;30.33;31.81;100465.41;5031003;28;20213;-69
2023/08/24 06:21:32;;;;;;;4.70;2.42;;;;;;;31.62;29.59;100458.28;5032236;28;20213;-69
2023/08/24 06:24:00;;;;;;;5.68;2.58;;;;;;;32.64;28.04;100472.50;5032075;28;20205;-70
2023/08/24 06:26:29;;;;;;;3.75;2.53;;;;;;;33.65;26.06;100467.78;5032306;28;20726;-69
2023/08/24 06:28:57;;;;;;;4.97;2.38;;;;;;;34.11;25.77;100473.75;5032051;28;20721;-70
2023/08/24 06:31:25;;;;;;;4.25;2.35;;;;;;;34.56;24.70;100461.09;5031912;28;20213;-70
2023/08/24 06:33:53;;;;;;;4.25;2.58;;;;;;;35.01;24.16;100466.03;5031879;28;20238;-68
2023/08/24 06:36:23;;;;;;;4.80;2.20;;;;;;;35.60;23.53;100455.16;5031916;28;20226;-69
2023/08/24 06:38:51;;;;;;;3.90;2.22;;;;;;;36.18;23.13;100469.28;5032153;28;20210;-69
2023/08/24 06:41:20;;;;;;;3.47;2.45;;;;;;;36.48;22.22;100462.28;5031894;28;20229;-70
2023/08/24 06:43:48;;;;;;;7.70;2.88;;;;;;;36.72;21.78;100466.69;5031890;28;20218;-69
2023/08/24 06:46:16;;;;;;;2.78;2.28;;;;;;;36.86;21.92;100457.88;5031966;28;20199;-68
2023/08/24 06:48:44;;;;;;;4.95;2.35;;;;;;;37.22;21.52;100463.47;5031718;28;20623;-69
2023/08/24 06:51:12;;;;;;;3.22;2.25;;;;;;;37.51;20.83;100461.06;5018679;28;20548;-69
2023/08/24 06:53:42;;;;;;;5.03;2.15;;;;;;;37.54;21.26;100466.91;5031876;28;20560;-69
2023/08/24 06:56:12;;;;;;;2.92;2.25;;;;;;;37.88;20.86;100466.41;5031908;28;20249;-71
2023/08/24 06:58:39;;;;;;;2.97;2.28;;;;;;;38.05;19.85;100466.22;5031463;28;20218;-69
2023/08/24 07:01:07;;;;;;;4.00;2.28;;;;;;;38.34;19.90;100474.31;5031483;28;20206;-69
2023/08/24 07:03:35;;;;;;;3.13;2.00;;;;;;;38.59;18.89;100460.47;5031847;28;20280;-70
2023/08/24 07:06:06;;;;;;;6.07;2.33;;;;;;;38.26;20.36;100477.06;5022106;28;20601;-69
2023/08/24 07:08:34;;;;;;;4.15;2.35;;;;;;;38.54;19.54;100473.69;5014026;28;20207;-71
2023/08/24 07:11:06;;;;;;;3.42;2.30;;;;;;;38.56;19.66;100479.75;5022321;28;20218;-70
2023/08/24 07:13:35;;;;;;;4.93;2.95;;;;;;;38.40;19.30;100472.69;5026798;28;20210;-69
2023/08/24 07:16:04;;;;;;;3.50;1.90;;;;;;;38.51;20.23;100484.84;5031260;28;20230;-69
2023/08/24 07:18:32;;;;;;;3.47;1.95;;;;;;;39.01;19.53;100477.75;5030709;28;20293;-69
2023/08/24 07:21:00;;;;;;;3.85;2.42;;;;;;;38.89;18.76;100477.44;5018500;28;20570;-69
2023/08/24 07:23:28;;;;;;;2.33;1.85;;;;;;;39.20;18.98;100474.38;5031385;28;20249;-69
2023/08/24 07:25:56;;;;;;;5.10;1.88;;;;;;;39.41;18.21;100481.66;5031010;28;20277;-70
2023/08/24 07:28:25;;;;;;;3.70;2.38;;;;;;;39.47;17.97;100480.00;5023471;28;20225;-69
2023/08/24 07:30:55;;;;;;;2.45;1.90;;;;;;;39.81;18.24;100481.97;5025572;28;20546;-71
2023/08/24 07:33:24;;;;;;;2.25;1.95;;;;;;;40.18;17.57;100485.28;5030869;28;20648;-69
2023/08/24 07:35:52;;;;;;;2.30;1.60;;;;;;;40.28;17.90;100483.88;5030889;28;20225;-71
2023/08/24 07:38:20;;;;;;;2.30;1.85;;;;;;;40.11;17.90;100474.44;5031223;28;20213;-70
2023/08/24 07:40:48;;;;;;;2.55;1.65;;;;;;;39.44;18.07;100470.47;5031323;28;20240;-69
2023/08/24 07:43:16;;;;;;;3.00;1.80;;;;;;;38.74;19.66;100479.28;5026658;28;20214;-69
2023/08/24 07:45:46;;;;;;;2.28;1.77;;;;;;;39.10;18.83;100479.25;5021541;28;20210;-70
2023/08/24 07:48:15;;;;;;;2.30;1.75;;;;;;;39.23;18.39;100476.69;5024796;28;20298;-69
2023/08/24 07:50:43;;;;;;;4.68;1.88;;;;;;;38.03;20.11;100473.66;5031007;28;20198;-69
2023/08/24 07:53:11;;;;;;;4.88;1.88;;;;;;;37.87;20.53;100470.09;5031128;28;20658;-69
2023/08/24 07:55:39;;;;;;;2.25;1.67;;;;;;;37.12;20.32;100478.19;5030865;28;20648;-71
2023/08/24 07:58:07;;;;;;;3.40;1.77;;;;;;;36.20;21.40;100478.00;5030860;28;20669;-70
2023/08/24 08:00:35;;;;;;;2.70;1.88;;;;;;;35.54;21.77;100470.09;5030698;28;20202;-70
2023/08/24 08:03:05;;;;;;;5.68;2.15;;;;;;;35.60;22.32;100465.88;5030919;28;21022;-70
2023/08/24 08:05:33;;;;;;;2.10;1.55;;;;;;;36.29;21.56;100460.84;5030926;28;20230;-70
2023/08/24 08:08:01;;;;;;;3.10;1.90;;;;;;;37.09;20.19;100468.63;5030988;28;20207;-71
2023/08/24 08:10:29;;;;;;;5.32;1.85;;;;;;;37.48;19.93;100464.94;5030484;28;20195;-71
2023/08/24 08:12:57;;;;;;;2.75;2.00;;;;;;;38.28;20.11;100458.03;5030874;28;20593;-70
2023/08/24 08:15:25;;;;;;;6.18;2.40;;;;;;;38.84;18.92;100463.69;5030581;28;20226;-70
2023/08/24 08:17:54;;;;;;;4.18;1.92;;;;;;;39.32;19.05;100462.06;5021441;28;20218;-69
2023/08/24 08:20:24;;;;;;;3.78;1.67;;;;;;;39.54;18.04;100465.53;5029964;28;20683;-72
2023/08/24 08:22:52;;;;;;;3.35;1.92;;;;;;;39.14;18.59;100462.53;5034793;28;20232;-70
2023/08/24 08:25:22;;;;;;;5.18;1.90;;;;;;;38.98;19.20;100457.38;5034340;28;20214;-70
2023/08/24 08:27:50;;;;;;;2.55;1.70;;;;;;;39.42;18.32;100461.72;5034740;28;20195;-71
2023/08/24 08:30:20;;;;;;;3.70;1.98;;;;;;;40.01;17.63;100461.28;5034700;28;20244;-70
2023/08/24 08:32:48;;;;;;;3.47;2.08;;;;;;;40.06;17.81;100463.38;5033944;28;20265;-69
2023/08/24 08:35:16;;;;;;;6.05;2.05;;;;;;;40.25;17.55;100470.78;5034513;28;20206;-69
2023/08/24 08:37:46;;;;;;;3.15;2.10;;;;;;;40.59;17.17;100465.53;5034103;28;20206;-70
2023/08/24 08:40:14;;;;;;;6.05;2.20;;;;;;;40.55;17.43;100454.25;5034505;28;20679;-69
2023/08/24 08:42:42;;;;;;;2.70;1.65;;;;;;;40.61;17.14;100458.03;5034183;28;20206;-71
2023/08/24 08:45:11;;;;;;;3.88;1.88;;;;;;;40.42;17.01;100462.31;5020467;28;20598;-69
2023/08/24 08:47:41;;;;;;;6.78;1.90;;;;;;;40.00;17.13;100458.81;5034066;28;20230;-69
2023/08/24 08:50:10;;;;;;;3.85;2.05;;;;;;;39.99;17.93;100457.13;5034230;28;20198;-73
2023/08/24 08:52:38;;;;;;;5.68;1.98;;;;;;;39.99;17.93;100457.13;5034392;28;20544;-69
2023/08/24 08:55:10;;;;;;;5.72;1.85;;;;;;;39.66;17.77;100463.16;5033937;28;20614;-69
2023/08/24 08:57:39;;;;;;;2.80;1.88;;;;;;;38.69;19.09;100455.63;5023203;28;20321;-69
2023/08/24 09:00:09;;;;;;;2.67;1.65;;;;;;;37.02;20.92;100461.47;5027927;28;20211;-69
2023/08/24 09:02:38;;;;;;;4.88;2.13;;;;;;;35.43;23.30;100464.22;5023835;28;20662;-69
2023/08/24 09:05:07;;;;;;;5.07;1.95;;;;;;;34.33;24.55;100472.34;5032203;28;20650;-69
2023/08/24 09:07:36;;;;;;;4.85;2.65;;;;;;;33.61;25.62;100466.41;5022155;28;20289;-69
2023/08/24 09:10:06;;;;;;;3.08;1.90;;;;;;;33.30;26.35;100467.84;5033636;28;20206;-68
2023/08/24 09:12:36;;;;;;;5.57;2.03;;;;;;;33.95;25.59;100471.00;5033546;28;20207;-70
2023/08/24 09:15:06;;;;;;;2.80;2.00;;;;;;;34.63;24.81;100455.91;5033970;28;20202;-69
2023/08/24 09:17:34;;;;;;;6.07;2.78;;;;;;;35.41;24.22;100453.66;5020352;28;20709;-69
2023/08/24 09:20:09;;;;;;;4.68;2.42;;;;;;;35.88;23.27;100457.47;5033793;28;20658;-69
2023/08/24 09:22:39;;;;;;;2.67;2.10;;;;;;;36.12;22.95;100452.00;5033744;28;20721;-70
2023/08/24 09:25:10;;;;;;;2.75;1.63;;;;;;;35.77;23.15;100456.81;5033406;28;20210;-68
2023/08/24 09:27:39;;;;;;;4.35;2.53;;;;;;;34.78;24.51;100459.63;5033114;28;20238;-70
2023/08/24 09:30:08;;;;;;;3.40;2.83;;;;;;;33.49;26.37;100461.50;5032737;28;20203;-68
2023/08/24 09:32:36;;;;;;;5.38;2.40;;;;;;;32.33;28.55;100460.44;5032637;28;20242;-70
2023/08/24 09:35:08;;;;;;;3.97;2.53;;;;;;;31.37;30.01;100457.94;5033168;28;20208;-68
2023/08/24 09:37:37;;;;;;;5.10;2.45;;;;;;;31.30;30.45;100456.78;5033089;28;20326;-68
2023/08/24 09:40:07;;;;;;;5.03;2.30;;;;;;;31.37;30.68;100449.94;5033443;28;20248;-69
2023/08/24 09:42:41;;;;;;;2.88;2.20;;;;;;;31.11;29.83;100451.44;5033158;28;20203;-70
2023/08/24 09:45:13;;;;;;;3.05;2.35;;;;;;;30.75;30.06;100452.00;5018972;28;20293;-69
2023/08/24 09:47:47;;;;;;;3.75;2.13;;;;;;;30.59;30.80;100454.28;5033289;28;20587;-69
2023/08/24 09:50:15;;;;;;;2.53;2.33;;;;;;;30.49;30.54;100458.78;5027526;28;20218;-68
2023/08/24 09:52:44;;;;;;;4.15;2.42;;;;;;;30.63;30.22;100457.53;5025277;28;20653;-70
2023/08/24 09:55:14;;;;;;;4.35;2.38;;;;;;;30.91;29.48;100448.78;5033159;28;20650;-68
2023/08/24 09:57:45;;;;;;;7.70;2.50;;;;;;;30.92;30.25;100454.94;5032985;28;20222;-69
2023/08/24 10:00:15;;;;;;;2.92;2.05;;;;;;;30.65;30.87;100452.91;5033007;28;20209;-69
2023/08/24 10:02:50;;;;;;;3.75;2.40;;;;;;;30.33;31.11;100448.63;5033268;28;20210;-69
2023/08/24 10:05:23;;;;;;;2.92;2.45;;;;;;;30.00;31.67;100461.19;5032896;28;20293;-69
2023/08/24 10:08:10;;;;;;;3.88;2.13;;;;;;;29.65;32.34;100458.94;5033287;28;20265;-68
2023/08/24 10:10:40;;;;;;;2.30;2.10;;;;;;;29.55;32.63;100458.00;5032555;28;20302;-70
2023/08/24 10:13:19;;;;;;;5.35;2.35;;;;;;;29.55;32.81;100465.94;5032655;28;20210;-68
2023/08/24 10:15:48;;;;;;;3.63;2.28;;;;;;;29.40;32.82;100467.25;5026779;28;20257;-69
2023/08/24 10:18:17;;;;;;;4.43;2.33;;;;;;;29.32;33.14;100465.25;5024938;28;20224;-68
2023/08/24 10:20:46;;;;;;;5.47;1.95;;;;;;;29.36;33.00;100458.69;5032766;28;20210;-71
2023/08/24 10:23:16;;;;;;;3.55;2.03;;;;;;;29.57;32.49;100456.06;5032726;28;20749;-71
2023/08/24 10:25:47;;;;;;;3.33;1.90;;;;;;;29.99;31.79;100448.06;5032296;28;20293;-70
2023/08/24 10:28:19;;;;;;;2.78;2.00;;;;;;;30.64;30.38;100448.59;5019695;28;20202;-68
2023/08/24 10:30:48;;;;;;;3.08;1.83;;;;;;;31.19;28.73;100447.13;5032636;28;20207;-69
2023/08/24 10:33:17;;;;;;;3.75;1.63;;;;;;;31.32;28.86;100446.00;5032040;28;20337;-70
2023/08/24 10:35:46;;;;;;;2.83;1.80;;;;;;;31.26;29.21;100450.03;5032400;28;20595;-69
2023/08/24 10:38:26;;;;;;;3.95;2.03;;;;;;;31.18;28.81;100437.41;5031691;28;20229;-69
2023/08/24 10:40:54;;;;;;;3.03;1.90;;;;;;;31.32;28.77;100446.84;5032091;28;20198;-69
2023/08/24 10:43:24;;;;;;;2.20;1.77;;;;;;;31.37;29.08;100433.09;5018209;28;20248;-68
2023/08/24 10:45:56;;;;;;;3.25;2.10;;;;;;;31.28;28.02;100445.41;5032090;28;20214;-69
2023/08/24 10:48:25;;;;;;;2.47;1.90;;;;;;;31.34;28.33;100438.72;5032069;28;20728;-69
2023/08/24 10:51:19;;;;;;;3.67;1.60;;;;;;;31.80;28.25;100435.25;5031783;28;20300;-69
2023/08/24 10:53:51;;;;;;;3.65;1.40;;;;;;;32.01;26.96;100435.06;5019065;28;20206;-68
2023/08/24 10:56:20;;;;;;;9.23;2.00;;;;;;;32.21;26.47;100438.47;5031829;28;20206;-71
2023/08/24 10:59:10;;;;;;;3.67;1.92;;;;;;;31.85;27.30;100435.66;5031541;28;20309;-69
2023/08/24 11:01:40;;;;;;;4.85;2.10;;;;;;;31.57;28.37;100429.41;5017693;28;20203;-72
2023/08/24 11:04:09;;;;;;;5.38;1.90;;;;;;;31.59;28.71;100424.78;5031758;28;20217;-70
2023/08/24 11:06:52;;;;;;;6.20;2.28;;;;;;;32.22;27.68;100418.84;5031408;28;20222;-69
2023/08/24 11:09:20;;;;;;;3.42;1.90;;;;;;;32.75;27.88;100412.75;5031763;28;20232;-69
2023/08/24 11:12:00;;;;;;;3.97;1.92;;;;;;;33.15;26.49;100417.63;5031668;28;20676;-68
2023/08/24 11:14:30;;;;;;;3.28;1.90;;;;;;;32.94;26.42;100409.94;5031859;28;20570;-69
2023/08/24 11:17:00;;;;;;;4.07;2.17;;;;;;;32.65;26.75;100409.31;5031325;28;20198;-69
2023/08/24 11:19:30;;;;;;;3.45;2.00;;;;;;;32.39;27.37;100414.50;5031319;28;20202;-69
2023/08/24 11:21:59;;;;;;;2.20;1.75;;;;;;;31.97;27.64;100412.34;5031651;28;20606;-69
2023/08/24 11:24:28;;;;;;;2.35;1.70;;;;;;;31.50;28.49;100415.00;5031352;28;20282;-70
2023/08/24 11:26:56;;;;;;;3.30;2.00;;;;;;;31.25;29.07;100413.75;5031243;28;20302;-68
2023/08/24 11:29:25;;;;;;;5.90;1.85;;;;;;;31.11;29.13;100409.69;5017312;28;20223;-70
2023/08/24 11:31:55;;;;;;;4.13;2.22;;;;;;;30.95;30.01;100404.09;5022811;28;20270;-68
2023/08/24 11:34:23;;;;;;;3.65;2.00;;;;;;;30.84;29.88;100409.56;5026261;28;20206;-69